sensor_id;sensor_type;location;lat;lon;timestamp;temperature;humidity
4727;DHT22;2377;51.734;8.950;2023-05-07T00:02:21;14.30;25.60
4727;DHT22;2377;51.734;8.950;2023-05-07T00:04:48;14.30;31.10
4727;DHT22;2377;51.734;8.950;2023-05-07T00:07:15;14.30;49.20
4727;DHT22;2377;51.734;8.950;2023-05-07T00:09:42;14.20;36.70
4727;DHT22;2377;51.734;8.950;2023-05-07T00:12:10;14.10;39.50
4727;DHT22;2377;51.734;8.950;2023-05-07T00:14:38;14.10;42.10
4727;DHT22;2377;51.734;8.950;2023-05-07T00:17:05;14.10;43.40
4727;DHT22;2377;51.734;8.950;2023-05-07T00:19:32;14.10;52.80
4727;DHT22;2377;51.734;8.950;2023-05-07T00:21:59;14.00;48.10
4727;DHT22;2377;51.734;8.950;2023-05-07T00:24:27;14.00;53.80
4727;DHT22;2377;51.734;8.950;2023-05-07T00:26:54;14.00;54.50
4727;DHT22;2377;51.734;8.950;2023-05-07T00:29:21;14.00;63.70
4727;DHT22;2377;51.734;8.950;2023-05-07T00:31:50;14.00;60.90
4727;DHT22;2377;51.734;8.950;2023-05-07T00:34:19;13.90;54.60
4727;DHT22;2377;51.734;8.950;2023-05-07T00:36:46;13.90;60.60
4727;DHT22;2377;51.734;8.950;2023-05-07T00:39:13;13.90;63.00
4727;DHT22;2377;51.734;8.950;2023-05-07T00:41:40;13.90;59.30
4727;DHT22;2377;51.734;8.950;2023-05-07T00:44:07;13.90;59.70
4727;DHT22;2377;51.734;8.950;2023-05-07T00:46:35;13.90;61.90
4727;DHT22;2377;51.734;8.950;2023-05-07T00:49:03;13.90;68.10
4727;DHT22;2377;51.734;8.950;2023-05-07T00:51:31;13.80;63.60
4727;DHT22;2377;51.734;8.950;2023-05-07T00:54:02;13.80;70.10
4727;DHT22;2377;51.734;8.950;2023-05-07T00:56:30;13.80;71.40
4727;DHT22;2377;51.734;8.950;2023-05-07T00:58:58;13.80;74.60
4727;DHT22;2377;51.734;8.950;2023-05-07T01:01:26;13.80;70.80
4727;DHT22;2377;51.734;8.950;2023-05-07T01:03:54;13.70;65.30
4727;DHT22;2377;51.734;8.950;2023-05-07T01:06:23;13.70;63.90
4727;DHT22;2377;51.734;8.950;2023-05-07T01:08:53;13.80;64.20
4727;DHT22;2377;51.734;8.950;2023-05-07T01:11:22;13.80;71.20
4727;DHT22;2377;51.734;8.950;2023-05-07T01:13:51;13.70;65.00
4727;DHT22;2377;51.734;8.950;2023-05-07T01:16:18;13.70;67.90
4727;DHT22;2377;51.734;8.950;2023-05-07T01:18:46;13.60;73.40
4727;DHT22;2377;51.734;8.950;2023-05-07T01:21:15;13.60;74.30
4727;DHT22;2377;51.734;8.950;2023-05-07T01:23:46;13.60;71.70
4727;DHT22;2377;51.734;8.950;2023-05-07T01:26:14;13.50;76.10
4727;DHT22;2377;51.734;8.950;2023-05-07T01:28:41;13.60;74.40
4727;DHT22;2377;51.734;8.950;2023-05-07T01:31:09;13.60;76.00
4727;DHT22;2377;51.734;8.950;2023-05-07T01:33:38;13.50;75.90
4727;DHT22;2377;51.734;8.950;2023-05-07T01:36:10;13.50;75.00
4727;DHT22;2377;51.734;8.950;2023-05-07T01:38:39;13.50;70.10
4727;DHT22;2377;51.734;8.950;2023-05-07T01:41:09;13.50;68.20
4727;DHT22;2377;51.734;8.950;2023-05-07T01:43:38;13.50;63.30
4727;DHT22;2377;51.734;8.950;2023-05-07T01:46:08;13.50;60.80
4727;DHT22;2377;51.734;8.950;2023-05-07T01:48:37;13.50;68.90
4727;DHT22;2377;51.734;8.950;2023-05-07T01:51:05;13.50;66.20
4727;DHT22;2377;51.734;8.950;2023-05-07T01:53:36;13.50;72.30
4727;DHT22;2377;51.734;8.950;2023-05-07T01:56:04;13.40;70.40
4727;DHT22;2377;51.734;8.950;2023-05-07T01:58:33;13.30;73.80
4727;DHT22;2377;51.734;8.950;2023-05-07T02:01:00;13.30;74.20
4727;DHT22;2377;51.734;8.950;2023-05-07T02:03:27;13.40;63.40
4727;DHT22;2377;51.734;8.950;2023-05-07T02:05:54;13.40;67.50
4727;DHT22;2377;51.734;8.950;2023-05-07T02:08:21;13.40;58.80
4727;DHT22;2377;51.734;8.950;2023-05-07T02:10:48;13.50;60.10
4727;DHT22;2377;51.734;8.950;2023-05-07T02:13:17;13.40;57.30
4727;DHT22;2377;51.734;8.950;2023-05-07T02:15:46;13.40;58.40
4727;DHT22;2377;51.734;8.950;2023-05-07T02:18:16;13.40;63.40
4727;DHT22;2377;51.734;8.950;2023-05-07T02:20:44;13.30;67.70
4727;DHT22;2377;51.734;8.950;2023-05-07T02:23:11;13.30;65.70
4727;DHT22;2377;51.734;8.950;2023-05-07T02:25:38;13.30;68.10
4727;DHT22;2377;51.734;8.950;2023-05-07T02:28:05;13.30;73.40
4727;DHT22;2377;51.734;8.950;2023-05-07T02:30:32;13.20;73.60
4727;DHT22;2377;51.734;8.950;2023-05-07T02:33:01;13.10;76.40
4727;DHT22;2377;51.734;8.950;2023-05-07T02:35:28;13.10;76.00
4727;DHT22;2377;51.734;8.950;2023-05-07T02:37:55;13.10;84.90
4727;DHT22;2377;51.734;8.950;2023-05-07T02:40:22;13.00;76.70
4727;DHT22;2377;51.734;8.950;2023-05-07T02:42:49;13.00;74.00
4727;DHT22;2377;51.734;8.950;2023-05-07T02:45:17;13.00;75.30
4727;DHT22;2377;51.734;8.950;2023-05-07T02:47:44;13.00;78.90
4727;DHT22;2377;51.734;8.950;2023-05-07T02:50:13;12.90;79.20
4727;DHT22;2377;51.734;8.950;2023-05-07T02:52:40;13.00;77.40
4727;DHT22;2377;51.734;8.950;2023-05-07T02:55:08;13.00;56.60
4727;DHT22;2377;51.734;8.950;2023-05-07T02:57:36;13.00;89.20
4727;DHT22;2377;51.734;8.950;2023-05-07T03:00:11;13.00;69.70
4727;DHT22;2377;51.734;8.950;2023-05-07T03:02:39;13.00;62.70
4727;DHT22;2377;51.734;8.950;2023-05-07T03:05:06;13.00;69.40
4727;DHT22;2377;51.734;8.950;2023-05-07T03:07:35;12.90;69.10
4727;DHT22;2377;51.734;8.950;2023-05-07T03:10:04;12.90;72.30
4727;DHT22;2377;51.734;8.950;2023-05-07T03:12:31;12.90;74.10
4727;DHT22;2377;51.734;8.950;2023-05-07T03:14:58;12.90;78.10
4727;DHT22;2377;51.734;8.950;2023-05-07T03:17:26;12.80;76.10
4727;DHT22;2377;51.734;8.950;2023-05-07T03:19:53;12.80;75.00
4727;DHT22;2377;51.734;8.950;2023-05-07T03:22:20;12.80;99.50
4727;DHT22;2377;51.734;8.950;2023-05-07T03:24:48;12.80;79.30
4727;DHT22;2377;51.734;8.950;2023-05-07T03:27:15;12.70;93.10
4727;DHT22;2377;51.734;8.950;2023-05-07T03:29:42;12.60;98.70
4727;DHT22;2377;51.734;8.950;2023-05-07T03:32:10;12.60;84.40
4727;DHT22;2377;51.734;8.950;2023-05-07T03:34:37;12.60;88.30
4727;DHT22;2377;51.734;8.950;2023-05-07T03:37:04;12.70;90.90
4727;DHT22;2377;51.734;8.950;2023-05-07T03:39:31;12.70;99.90
4727;DHT22;2377;51.734;8.950;2023-05-07T03:42:00;12.60;98.30
4727;DHT22;2377;51.734;8.950;2023-05-07T03:44:28;12.60;94.20
4727;DHT22;2377;51.734;8.950;2023-05-07T03:46:55;12.60;99.90
4727;DHT22;2377;51.734;8.950;2023-05-07T03:49:22;12.50;99.90
4727;DHT22;2377;51.734;8.950;2023-05-07T03:51:49;12.50;99.90
4727;DHT22;2377;51.734;8.950;2023-05-07T03:54:16;12.50;99.90
4727;DHT22;2377;51.734;8.950;2023-05-07T03:56:43;12.50;99.90
4727;DHT22;2377;51.734;8.950;2023-05-07T03:59:12;12.50;99.90
4727;DHT22;2377;51.734;8.950;2023-05-07T04:01:39;12.50;99.90
4727;DHT22;2377;51.734;8.950;2023-05-07T04:04:07;12.50;99.90
4727;DHT22;2377;51.734;8.950;2023-05-07T04:06:34;12.50;99.90
4727;DHT22;2377;51.734;8.950;2023-05-07T04:09:01;12.50;99.90
4727;DHT22;2377;51.734;8.950;2023-05-07T04:11:28;12.50;99.90
4727;DHT22;2377;51.734;8.950;2023-05-07T04:13:55;12.40;99.90
4727;DHT22;2377;51.734;8.950;2023-05-07T04:16:23;12.50;99.90
4727;DHT22;2377;51.734;8.950;2023-05-07T04:18:50;12.40;99.90
4727;DHT22;2377;51.734;8.950;2023-05-07T04:21:19;12.40;99.90
4727;DHT22;2377;51.734;8.950;2023-05-07T04:23:48;12.40;99.90
4727;DHT22;2377;51.734;8.950;2023-05-07T04:26:15;12.40;99.90
4727;DHT22;2377;51.734;8.950;2023-05-07T04:28:42;12.30;99.90
4727;DHT22;2377;51.734;8.950;2023-05-07T04:31:10;12.30;99.90
4727;DHT22;2377;51.734;8.950;2023-05-07T04:33:38;12.30;99.90
4727;DHT22;2377;51.734;8.950;2023-05-07T04:36:06;12.40;99.90
4727;DHT22;2377;51.734;8.950;2023-05-07T04:38:33;12.30;99.90
4727;DHT22;2377;51.734;8.950;2023-05-07T04:41:03;12.30;99.90
4727;DHT22;2377;51.734;8.950;2023-05-07T04:43:30;12.30;99.90
4727;DHT22;2377;51.734;8.950;2023-05-07T04:45:57;12.30;99.90
4727;DHT22;2377;51.734;8.950;2023-05-07T04:48:24;12.30;99.90
4727;DHT22;2377;51.734;8.950;2023-05-07T04:50:53;12.30;99.90
4727;DHT22;2377;51.734;8.950;2023-05-07T04:53:20;12.30;99.90
4727;DHT22;2377;51.734;8.950;2023-05-07T04:55:48;12.30;99.90
4727;DHT22;2377;51.734;8.950;2023-05-07T04:58:15;12.30;99.90
4727;DHT22;2377;51.734;8.950;2023-05-07T05:00:42;12.30;99.90
4727;DHT22;2377;51.734;8.950;2023-05-07T05:03:09;12.30;99.90
4727;DHT22;2377;51.734;8.950;2023-05-07T05:05:36;12.30;99.90
4727;DHT22;2377;51.734;8.950;2023-05-07T05:08:05;12.30;99.90
4727;DHT22;2377;51.734;8.950;2023-05-07T05:10:32;12.30;99.90
4727;DHT22;2377;51.734;8.950;2023-05-07T05:12:59;12.30;99.90
4727;DHT22;2377;51.734;8.950;2023-05-07T05:15:26;12.30;99.90
4727;DHT22;2377;51.734;8.950;2023-05-07T05:17:53;12.30;99.90
4727;DHT22;2377;51.734;8.950;2023-05-07T05:20:20;12.30;99.90
4727;DHT22;2377;51.734;8.950;2023-05-07T05:22:47;12.30;99.90
4727;DHT22;2377;51.734;8.950;2023-05-07T05:25:16;12.30;99.90
4727;DHT22;2377;51.734;8.950;2023-05-07T05:27:43;12.30;99.90
4727;DHT22;2377;51.734;8.950;2023-05-07T05:30:11;12.30;99.90
4727;DHT22;2377;51.734;8.950;2023-05-07T05:32:39;12.30;99.90
4727;DHT22;2377;51.734;8.950;2023-05-07T05:35:07;12.30;99.90
4727;DHT22;2377;51.734;8.950;2023-05-07T05:37:35;12.30;99.90
4727;DHT22;2377;51.734;8.950;2023-05-07T05:40:02;12.30;99.90
4727;DHT22;2377;51.734;8.950;2023-05-07T05:42:31;12.30;99.90
4727;DHT22;2377;51.734;8.950;2023-05-07T05:44:58;12.30;99.90
4727;DHT22;2377;51.734;8.950;2023-05-07T05:47:25;12.30;99.90
4727;DHT22;2377;51.734;8.950;2023-05-07T05:49:52;12.30;99.90
4727;DHT22;2377;51.734;8.950;2023-05-07T05:52:19;12.30;99.90
4727;DHT22;2377;51.734;8.950;2023-05-07T05:54:49;12.20;99.90
4727;DHT22;2377;51.734;8.950;2023-05-07T05:57:16;12.30;99.90
4727;DHT22;2377;51.734;8.950;2023-05-07T05:59:45;12.30;99.90
4727;DHT22;2377;51.734;8.950;2023-05-07T06:02:12;12.30;99.30
4727;DHT22;2377;51.734;8.950;2023-05-07T06:04:40;12.30;99.90
4727;DHT22;2377;51.734;8.950;2023-05-07T06:07:08;12.30;99.90
4727;DHT22;2377;51.734;8.950;2023-05-07T06:09:35;12.20;99.90
4727;DHT22;2377;51.734;8.950;2023-05-07T06:12:02;12.20;99.90
4727;DHT22;2377;51.734;8.950;2023-05-07T06:14:29;12.30;99.90
4727;DHT22;2377;51.734;8.950;2023-05-07T06:16:59;12.20;99.90
4727;DHT22;2377;51.734;8.950;2023-05-07T06:19:26;12.30;99.90
4727;DHT22;2377;51.734;8.950;2023-05-07T06:21:53;12.20;99.90
4727;DHT22;2377;51.734;8.950;2023-05-07T06:24:21;12.30;99.90
4727;DHT22;2377;51.734;8.950;2023-05-07T06:26:49;12.30;98.50
4727;DHT22;2377;51.734;8.950;2023-05-07T06:29:16;12.40;99.90
4727;DHT22;2377;51.734;8.950;2023-05-07T06:31:43;12.50;99.90
4727;DHT22;2377;51.734;8.950;2023-05-07T06:34:11;12.50;99.90
4727;DHT22;2377;51.734;8.950;2023-05-07T06:36:40;12.60;93.20
4727;DHT22;2377;51.734;8.950;2023-05-07T06:39:07;12.60;99.90
4727;DHT22;2377;51.734;8.950;2023-05-07T06:41:34;12.60;75.80
4727;DHT22;2377;51.734;8.950;2023-05-07T06:44:02;12.70;85.70
4727;DHT22;2377;51.734;8.950;2023-05-07T06:46:30;12.60;90.00
4727;DHT22;2377;51.734;8.950;2023-05-07T06:48:57;12.60;86.00
4727;DHT22;2377;51.734;8.950;2023-05-07T06:51:26;12.60;82.10
4727;DHT22;2377;51.734;8.950;2023-05-07T06:53:53;12.60;85.40
4727;DHT22;2377;51.734;8.950;2023-05-07T06:56:20;12.70;73.30
4727;DHT22;2377;51.734;8.950;2023-05-07T06:58:48;12.70;80.30
4727;DHT22;2377;51.734;8.950;2023-05-07T07:01:15;12.80;74.70
4727;DHT22;2377;51.734;8.950;2023-05-07T07:03:42;12.80;64.70
4727;DHT22;2377;51.734;8.950;2023-05-07T07:06:09;12.80;80.60
4727;DHT22;2377;51.734;8.950;2023-05-07T07:08:38;12.80;64.30
4727;DHT22;2377;51.734;8.950;2023-05-07T07:11:05;12.90;59.30
4727;DHT22;2377;51.734;8.950;2023-05-07T07:13:32;12.90;54.40
4727;DHT22;2377;51.734;8.950;2023-05-07T07:16:00;12.80;63.30
4727;DHT22;2377;51.734;8.950;2023-05-07T07:18:27;12.80;72.10
4727;DHT22;2377;51.734;8.950;2023-05-07T07:20:54;12.80;71.20
4727;DHT22;2377;51.734;8.950;2023-05-07T07:23:21;13.00;48.40
4727;DHT22;2377;51.734;8.950;2023-05-07T07:25:49;13.00;63.40
4727;DHT22;2377;51.734;8.950;2023-05-07T07:28:17;13.00;59.10
4727;DHT22;2377;51.734;8.950;2023-05-07T07:30:44;13.00;66.60
4727;DHT22;2377;51.734;8.950;2023-05-07T07:33:11;12.90;63.70
4727;DHT22;2377;51.734;8.950;2023-05-07T07:35:38;12.80;61.80
4727;DHT22;2377;51.734;8.950;2023-05-07T07:38:05;12.80;59.70
4727;DHT22;2377;51.734;8.950;2023-05-07T07:40:34;12.90;53.30
4727;DHT22;2377;51.734;8.950;2023-05-07T07:43:03;12.90;42.50
4727;DHT22;2377;51.734;8.950;2023-05-07T07:45:30;13.00;43.00
4727;DHT22;2377;51.734;8.950;2023-05-07T07:47:57;13.10;47.00
4727;DHT22;2377;51.734;8.950;2023-05-07T07:50:24;13.10;44.70
4727;DHT22;2377;51.734;8.950;2023-05-07T07:52:51;13.10;35.50
4727;DHT22;2377;51.734;8.950;2023-05-07T07:55:20;13.30;36.10
4727;DHT22;2377;51.734;8.950;2023-05-07T07:57:48;13.30;22.10
4727;DHT22;2377;51.734;8.950;2023-05-07T08:00:17;13.40;27.50
4727;DHT22;2377;51.734;8.950;2023-05-07T08:02:45;13.40;37.30
4727;DHT22;2377;51.734;8.950;2023-05-07T08:05:12;13.40;31.00
4727;DHT22;2377;51.734;8.950;2023-05-07T08:07:40;13.40;46.50
4727;DHT22;2377;51.734;8.950;2023-05-07T08:10:08;13.50;24.50
4727;DHT22;2377;51.734;8.950;2023-05-07T08:12:36;13.60;29.10
4727;DHT22;2377;51.734;8.950;2023-05-07T08:15:03;13.70;21.80
4727;DHT22;2377;51.734;8.950;2023-05-07T08:17:32;13.80;17.10
4727;DHT22;2377;51.734;8.950;2023-05-07T08:19:59;13.80;17.70
4727;DHT22;2377;51.734;8.950;2023-05-07T08:22:26;13.80;12.00
4727;DHT22;2377;51.734;8.950;2023-05-07T08:24:53;13.80;11.90
4727;DHT22;2377;51.734;8.950;2023-05-07T08:27:20;14.00;15.90
4727;DHT22;2377;51.734;8.950;2023-05-07T08:29:48;14.00;1.70
4727;DHT22;2377;51.734;8.950;2023-05-07T08:32:15;14.10;5.50
4727;DHT22;2377;51.734;8.950;2023-05-07T08:34:43;14.00;8.40
4727;DHT22;2377;51.734;8.950;2023-05-07T08:37:10;14.00;12.80
4727;DHT22;2377;51.734;8.950;2023-05-07T08:39:37;14.00;8.40
4727;DHT22;2377;51.734;8.950;2023-05-07T08:42:05;14.00;9.90
4727;DHT22;2377;51.734;8.950;2023-05-07T08:44:38;14.00;11.30
4727;DHT22;2377;51.734;8.950;2023-05-07T08:47:07;14.00;12.90
4727;DHT22;2377;51.734;8.950;2023-05-07T08:49:35;14.10;9.80
4727;DHT22;2377;51.734;8.950;2023-05-07T08:52:04;14.10;2.10
4727;DHT22;2377;51.734;8.950;2023-05-07T08:54:32;14.10;1.00
4727;DHT22;2377;51.734;8.950;2023-05-07T08:57:00;14.10;3.30
4727;DHT22;2377;51.734;8.950;2023-05-07T08:59:28;14.10;3.30
4727;DHT22;2377;51.734;8.950;2023-05-07T09:01:55;14.30;2.70
4727;DHT22;2377;51.734;8.950;2023-05-07T09:04:22;14.30;1.00
4727;DHT22;2377;51.734;8.950;2023-05-07T09:06:50;14.40;1.00
4727;DHT22;2377;51.734;8.950;2023-05-07T09:09:18;14.30;1.00
4727;DHT22;2377;51.734;8.950;2023-05-07T09:11:45;14.40;1.00
4727;DHT22;2377;51.734;8.950;2023-05-07T09:14:12;14.50;1.00
4727;DHT22;2377;51.734;8.950;2023-05-07T09:16:40;14.50;1.00
4727;DHT22;2377;51.734;8.950;2023-05-07T09:19:07;14.60;1.00
4727;DHT22;2377;51.734;8.950;2023-05-07T09:21:35;14.60;1.00
4727;DHT22;2377;51.734;8.950;2023-05-07T09:24:02;14.60;1.00
4727;DHT22;2377;51.734;8.950;2023-05-07T09:26:31;14.70;1.00
4727;DHT22;2377;51.734;8.950;2023-05-07T09:28:59;14.80;1.00
4727;DHT22;2377;51.734;8.950;2023-05-07T09:31:26;15.00;1.00
4727;DHT22;2377;51.734;8.950;2023-05-07T09:33:57;15.10;1.00
4727;DHT22;2377;51.734;8.950;2023-05-07T09:36:24;15.10;1.00
4727;DHT22;2377;51.734;8.950;2023-05-07T09:38:53;15.20;1.00
4727;DHT22;2377;51.734;8.950;2023-05-07T09:41:22;15.30;1.00
4727;DHT22;2377;51.734;8.950;2023-05-07T09:43:54;15.30;1.00
4727;DHT22;2377;51.734;8.950;2023-05-07T09:46:27;15.30;1.00
4727;DHT22;2377;51.734;8.950;2023-05-07T09:48:57;15.40;1.00
4727;DHT22;2377;51.734;8.950;2023-05-07T09:51:29;15.50;1.00
4727;DHT22;2377;51.734;8.950;2023-05-07T09:54:01;15.60;1.00
4727;DHT22;2377;51.734;8.950;2023-05-07T09:56:30;15.60;1.00
4727;DHT22;2377;51.734;8.950;2023-05-07T09:59:00;15.50;1.00
4727;DHT22;2377;51.734;8.950;2023-05-07T10:01:27;15.50;1.00
4727;DHT22;2377;51.734;8.950;2023-05-07T10:03:57;15.50;1.00
4727;DHT22;2377;51.734;8.950;2023-05-07T10:06:25;15.60;1.00
4727;DHT22;2377;51.734;8.950;2023-05-07T10:08:54;15.70;1.00
4727;DHT22;2377;51.734;8.950;2023-05-07T10:11:22;15.80;1.00
4727;DHT22;2377;51.734;8.950;2023-05-07T10:13:50;15.90;1.00
4727;DHT22;2377;51.734;8.950;2023-05-07T10:16:20;16.00;1.00
4727;DHT22;2377;51.734;8.950;2023-05-07T10:18:48;16.10;1.00
4727;DHT22;2377;51.734;8.950;2023-05-07T10:21:17;16.30;1.00
4727;DHT22;2377;51.734;8.950;2023-05-07T10:23:50;16.30;1.00
4727;DHT22;2377;51.734;8.950;2023-05-07T10:26:20;16.30;1.00
4727;DHT22;2377;51.734;8.950;2023-05-07T10:28:54;16.30;1.00
4727;DHT22;2377;51.734;8.950;2023-05-07T10:31:44;16.30;1.00
4727;DHT22;2377;51.734;8.950;2023-05-07T10:34:23;16.50;1.00
4727;DHT22;2377;51.734;8.950;2023-05-07T10:36:54;16.40;1.00
4727;DHT22;2377;51.734;8.950;2023-05-07T10:39:22;16.50;1.00
4727;DHT22;2377;51.734;8.950;2023-05-07T10:41:50;16.60;1.00
4727;DHT22;2377;51.734;8.950;2023-05-07T10:44:25;16.50;1.00
4727;DHT22;2377;51.734;8.950;2023-05-07T10:47:06;16.50;1.00
4727;DHT22;2377;51.734;8.950;2023-05-07T10:49:35;16.40;1.00
4727;DHT22;2377;51.734;8.950;2023-05-07T10:52:14;16.30;1.00
4727;DHT22;2377;51.734;8.950;2023-05-07T10:54:42;16.20;1.00
4727;DHT22;2377;51.734;8.950;2023-05-07T10:57:35;16.40;1.00
4727;DHT22;2377;51.734;8.950;2023-05-07T11:00:04;16.50;1.00
4727;DHT22;2377;51.734;8.950;2023-05-07T11:03:11;16.50;1.00
4727;DHT22;2377;51.734;8.950;2023-05-07T11:05:40;16.50;1.00
4727;DHT22;2377;51.734;8.950;2023-05-07T11:08:09;16.50;1.00
4727;DHT22;2377;51.734;8.950;2023-05-07T11:10:51;16.50;1.00
4727;DHT22;2377;51.734;8.950;2023-05-07T11:13:41;16.50;1.00
4727;DHT22;2377;51.734;8.950;2023-05-07T11:16:17;16.50;1.00
4727;DHT22;2377;51.734;8.950;2023-05-07T11:18:50;16.40;1.00
4727;DHT22;2377;51.734;8.950;2023-05-07T11:21:35;16.40;1.00
4727;DHT22;2377;51.734;8.950;2023-05-07T11:24:06;16.40;1.00
4727;DHT22;2377;51.734;8.950;2023-05-07T11:26:45;16.50;1.00
4727;DHT22;2377;51.734;8.950;2023-05-07T11:29:15;16.60;1.00
4727;DHT22;2377;51.734;8.950;2023-05-07T11:31:43;16.70;1.00
4727;DHT22;2377;51.734;8.950;2023-05-07T11:34:12;16.80;1.00
4727;DHT22;2377;51.734;8.950;2023-05-07T11:36:42;16.80;1.00
4727;DHT22;2377;51.734;8.950;2023-05-07T11:39:26;16.90;1.00
4727;DHT22;2377;51.734;8.950;2023-05-07T11:41:54;16.90;1.00
4727;DHT22;2377;51.734;8.950;2023-05-07T11:44:22;17.10;1.00
4727;DHT22;2377;51.734;8.950;2023-05-07T11:46:49;17.10;1.00
4727;DHT22;2377;51.734;8.950;2023-05-07T11:49:18;17.00;1.00
4727;DHT22;2377;51.734;8.950;2023-05-07T11:51:45;17.00;1.00
4727;DHT22;2377;51.734;8.950;2023-05-07T11:54:15;17.00;1.00
4727;DHT22;2377;51.734;8.950;2023-05-07T11:56:44;17.10;1.00
4727;DHT22;2377;51.734;8.950;2023-05-07T11:59:17;17.10;1.00
4727;DHT22;2377;51.734;8.950;2023-05-07T12:01:46;17.10;1.00
4727;DHT22;2377;51.734;8.950;2023-05-07T12:04:13;17.10;1.00
4727;DHT22;2377;51.734;8.950;2023-05-07T12:06:42;17.10;1.00
4727;DHT22;2377;51.734;8.950;2023-05-07T12:09:09;17.20;1.00
4727;DHT22;2377;51.734;8.950;2023-05-07T12:11:37;17.30;1.00
4727;DHT22;2377;51.734;8.950;2023-05-07T12:14:06;17.20;1.00
4727;DHT22;2377;51.734;8.950;2023-05-07T12:16:33;17.10;1.00
4727;DHT22;2377;51.734;8.950;2023-05-07T12:19:01;17.10;1.00
4727;DHT22;2377;51.734;8.950;2023-05-07T12:21:29;17.10;1.00
4727;DHT22;2377;51.734;8.950;2023-05-07T12:23:58;17.00;1.00
4727;DHT22;2377;51.734;8.950;2023-05-07T12:26:25;16.80;1.00
4727;DHT22;2377;51.734;8.950;2023-05-07T12:28:52;16.90;1.00
4727;DHT22;2377;51.734;8.950;2023-05-07T12:31:19;17.00;1.00
4727;DHT22;2377;51.734;8.950;2023-05-07T12:33:46;17.10;1.00
4727;DHT22;2377;51.734;8.950;2023-05-07T12:36:14;17.10;1.00
4727;DHT22;2377;51.734;8.950;2023-05-07T12:38:41;17.20;1.00
4727;DHT22;2377;51.734;8.950;2023-05-07T12:41:10;17.30;1.00
4727;DHT22;2377;51.734;8.950;2023-05-07T12:43:38;17.40;1.00
4727;DHT22;2377;51.734;8.950;2023-05-07T12:46:06;17.50;1.00
4727;DHT22;2377;51.734;8.950;2023-05-07T12:48:36;17.50;1.00
4727;DHT22;2377;51.734;8.950;2023-05-07T12:51:05;17.50;1.00
4727;DHT22;2377;51.734;8.950;2023-05-07T12:53:40;17.50;1.00
4727;DHT22;2377;51.734;8.950;2023-05-07T12:56:10;17.50;1.00
4727;DHT22;2377;51.734;8.950;2023-05-07T12:58:37;17.50;1.00
4727;DHT22;2377;51.734;8.950;2023-05-07T13:01:06;17.40;1.00
4727;DHT22;2377;51.734;8.950;2023-05-07T13:03:36;17.30;1.00
4727;DHT22;2377;51.734;8.950;2023-05-07T13:06:05;17.30;1.00
4727;DHT22;2377;51.734;8.950;2023-05-07T13:08:37;17.20;1.00
4727;DHT22;2377;51.734;8.950;2023-05-07T13:11:07;17.30;1.00
4727;DHT22;2377;51.734;8.950;2023-05-07T13:13:38;17.30;1.00
4727;DHT22;2377;51.734;8.950;2023-05-07T13:16:08;17.40;1.00
4727;DHT22;2377;51.734;8.950;2023-05-07T13:18:38;17.40;1.00
4727;DHT22;2377;51.734;8.950;2023-05-07T13:21:06;17.40;1.00
4727;DHT22;2377;51.734;8.950;2023-05-07T13:23:34;17.60;1.00
4727;DHT22;2377;51.734;8.950;2023-05-07T13:26:01;17.70;1.00
4727;DHT22;2377;51.734;8.950;2023-05-07T13:28:29;17.80;1.00
4727;DHT22;2377;51.734;8.950;2023-05-07T13:30:56;17.90;1.00
4727;DHT22;2377;51.734;8.950;2023-05-07T13:33:23;17.80;1.00
4727;DHT22;2377;51.734;8.950;2023-05-07T13:35:50;17.50;1.00
4727;DHT22;2377;51.734;8.950;2023-05-07T13:38:18;17.50;1.00
4727;DHT22;2377;51.734;8.950;2023-05-07T13:40:45;17.60;1.00
4727;DHT22;2377;51.734;8.950;2023-05-07T13:43:12;17.70;1.00
4727;DHT22;2377;51.734;8.950;2023-05-07T13:45:41;17.80;1.00
4727;DHT22;2377;51.734;8.950;2023-05-07T13:48:08;17.90;1.00
4727;DHT22;2377;51.734;8.950;2023-05-07T13:50:35;17.90;1.00
4727;DHT22;2377;51.734;8.950;2023-05-07T13:53:02;18.00;1.00
4727;DHT22;2377;51.734;8.950;2023-05-07T13:55:30;17.80;1.00
4727;DHT22;2377;51.734;8.950;2023-05-07T13:57:58;17.80;1.00
4727;DHT22;2377;51.734;8.950;2023-05-07T14:00:26;17.90;1.00
4727;DHT22;2377;51.734;8.950;2023-05-07T14:02:56;18.00;1.00
4727;DHT22;2377;51.734;8.950;2023-05-07T14:05:24;17.90;1.00
4727;DHT22;2377;51.734;8.950;2023-05-07T14:07:59;17.80;1.00
4727;DHT22;2377;51.734;8.950;2023-05-07T14:10:30;17.80;1.00
4727;DHT22;2377;51.734;8.950;2023-05-07T14:13:00;17.80;1.00
4727;DHT22;2377;51.734;8.950;2023-05-07T14:15:27;17.80;1.00
4727;DHT22;2377;51.734;8.950;2023-05-07T14:17:55;17.80;1.00
4727;DHT22;2377;51.734;8.950;2023-05-07T14:20:24;17.90;1.00
4727;DHT22;2377;51.734;8.950;2023-05-07T14:22:51;17.90;1.00
4727;DHT22;2377;51.734;8.950;2023-05-07T14:25:18;18.00;1.00
4727;DHT22;2377;51.734;8.950;2023-05-07T14:27:45;17.80;1.00
4727;DHT22;2377;51.734;8.950;2023-05-07T14:30:13;17.80;1.00
4727;DHT22;2377;51.734;8.950;2023-05-07T14:32:40;17.70;1.00
4727;DHT22;2377;51.734;8.950;2023-05-07T14:35:08;17.70;1.00
4727;DHT22;2377;51.734;8.950;2023-05-07T14:37:35;17.80;1.00
4727;DHT22;2377;51.734;8.950;2023-05-07T14:40:03;17.80;1.00
4727;DHT22;2377;51.734;8.950;2023-05-07T14:42:31;17.70;1.00
4727;DHT22;2377;51.734;8.950;2023-05-07T14:44:58;17.60;1.00
4727;DHT22;2377;51.734;8.950;2023-05-07T14:47:25;17.70;1.00
4727;DHT22;2377;51.734;8.950;2023-05-07T14:49:52;17.60;1.00
4727;DHT22;2377;51.734;8.950;2023-05-07T14:52:21;17.70;1.00
4727;DHT22;2377;51.734;8.950;2023-05-07T14:54:48;17.60;1.00
4727;DHT22;2377;51.734;8.950;2023-05-07T14:57:15;17.70;1.00
4727;DHT22;2377;51.734;8.950;2023-05-07T14:59:44;17.70;1.00
4727;DHT22;2377;51.734;8.950;2023-05-07T15:02:12;17.80;1.00
4727;DHT22;2377;51.734;8.950;2023-05-07T15:04:40;17.70;1.00
4727;DHT22;2377;51.734;8.950;2023-05-07T15:07:11;17.60;1.00
4727;DHT22;2377;51.734;8.950;2023-05-07T15:09:42;17.60;1.00
4727;DHT22;2377;51.734;8.950;2023-05-07T15:12:09;17.60;1.00
4727;DHT22;2377;51.734;8.950;2023-05-07T15:14:37;17.60;1.00
4727;DHT22;2377;51.734;8.950;2023-05-07T15:17:05;17.60;1.00
4727;DHT22;2377;51.734;8.950;2023-05-07T15:19:32;17.60;1.00
4727;DHT22;2377;51.734;8.950;2023-05-07T15:22:00;17.70;1.00
4727;DHT22;2377;51.734;8.950;2023-05-07T15:24:28;17.70;1.00
4727;DHT22;2377;51.734;8.950;2023-05-07T15:26:57;17.70;1.00
4727;DHT22;2377;51.734;8.950;2023-05-07T15:29:24;17.60;1.00
4727;DHT22;2377;51.734;8.950;2023-05-07T15:31:52;17.60;1.00
4727;DHT22;2377;51.734;8.950;2023-05-07T15:34:20;17.50;1.00
4727;DHT22;2377;51.734;8.950;2023-05-07T15:36:47;17.50;1.00
4727;DHT22;2377;51.734;8.950;2023-05-07T15:39:15;17.40;1.00
4727;DHT22;2377;51.734;8.950;2023-05-07T15:41:42;17.30;1.00
4727;DHT22;2377;51.734;8.950;2023-05-07T15:44:10;17.20;1.00
4727;DHT22;2377;51.734;8.950;2023-05-07T15:46:37;17.20;1.00
4727;DHT22;2377;51.734;8.950;2023-05-07T15:49:04;17.20;1.00
4727;DHT22;2377;51.734;8.950;2023-05-07T15:51:34;17.10;1.00
4727;DHT22;2377;51.734;8.950;2023-05-07T15:54:02;17.10;1.00
4727;DHT22;2377;51.734;8.950;2023-05-07T15:56:29;17.10;1.00
4727;DHT22;2377;51.734;8.950;2023-05-07T15:58:58;17.10;1.00
4727;DHT22;2377;51.734;8.950;2023-05-07T16:01:26;17.00;1.00
4727;DHT22;2377;51.734;8.950;2023-05-07T16:03:53;16.90;1.00
4727;DHT22;2377;51.734;8.950;2023-05-07T16:06:20;16.80;1.00
4727;DHT22;2377;51.734;8.950;2023-05-07T16:08:48;16.80;1.00
4727;DHT22;2377;51.734;8.950;2023-05-07T16:11:15;16.80;1.00
4727;DHT22;2377;51.734;8.950;2023-05-07T16:13:42;16.80;1.00
4727;DHT22;2377;51.734;8.950;2023-05-07T16:16:09;16.80;1.00
4727;DHT22;2377;51.734;8.950;2023-05-07T16:18:37;16.80;1.00